sensor_id;sensor_type;location;lat;lon;timestamp;P1;durP1;ratioP1;P2;durP2;ratioP2
35877;SDS011;21982;49.804;24.072;2023-11-19T00:01:25;32.28;;;14.48;;
35877;SDS011;21982;49.804;24.072;2023-11-19T00:03:51;30.35;;;13.93;;
35877;SDS011;21982;49.804;24.072;2023-11-19T00:06:17;30.17;;;15.75;;
35877;SDS011;21982;49.804;24.072;2023-11-19T00:08:42;32.42;;;14.85;;
35877;SDS011;21982;49.804;24.072;2023-11-19T00:11:11;31.98;;;14.88;;
35877;SDS011;21982;49.804;24.072;2023-11-19T00:13:40;33.33;;;18.23;;
35877;SDS011;21982;49.804;24.072;2023-11-19T00:16:06;32.28;;;15.98;;
35877;SDS011;21982;49.804;24.072;2023-11-19T00:18:32;38.95;;;17.58;;
35877;SDS011;21982;49.804;24.072;2023-11-19T00:20:58;33.90;;;16.13;;
35877;SDS011;21982;49.804;24.072;2023-11-19T00:23:25;36.85;;;15.25;;
35877;SDS011;21982;49.804;24.072;2023-11-19T00:25:53;41.08;;;18.33;;
35877;SDS011;21982;49.804;24.072;2023-11-19T00:28:19;32.80;;;17.60;;
35877;SDS011;21982;49.804;24.072;2023-11-19T00:30:44;38.53;;;18.92;;
35877;SDS011;21982;49.804;24.072;2023-11-19T00:33:09;36.88;;;16.65;;
35877;SDS011;21982;49.804;24.072;2023-11-19T00:35:35;39.88;;;17.00;;
35877;SDS011;21982;49.804;24.072;2023-11-19T00:38:00;37.10;;;16.35;;
35877;SDS011;21982;49.804;24.072;2023-11-19T00:40:26;38.83;;;16.63;;
35877;SDS011;21982;49.804;24.072;2023-11-19T00:42:53;32.17;;;17.17;;
35877;SDS011;21982;49.804;24.072;2023-11-19T00:45:19;31.70;;;15.82;;
35877;SDS011;21982;49.804;24.072;2023-11-19T00:47:44;30.85;;;16.20;;
35877;SDS011;21982;49.804;24.072;2023-11-19T00:50:09;37.63;;;18.50;;
35877;SDS011;21982;49.804;24.072;2023-11-19T00:52:36;33.53;;;16.10;;
35877;SDS011;21982;49.804;24.072;2023-11-19T00:55:02;32.33;;;16.13;;
35877;SDS011;21982;49.804;24.072;2023-11-19T00:57:28;35.35;;;14.63;;
35877;SDS011;21982;49.804;24.072;2023-11-19T00:59:54;33.40;;;15.52;;
35877;SDS011;21982;49.804;24.072;2023-11-19T01:02:19;32.40;;;15.57;;
35877;SDS011;21982;49.804;24.072;2023-11-19T01:04:44;32.72;;;15.90;;
35877;SDS011;21982;49.804;24.072;2023-11-19T01:07:10;27.75;;;15.05;;
35877;SDS011;21982;49.804;24.072;2023-11-19T01:09:38;26.92;;;12.10;;
35877;SDS011;21982;49.804;24.072;2023-11-19T01:12:06;24.42;;;12.52;;
35877;SDS011;21982;49.804;24.072;2023-11-19T01:14:32;25.23;;;11.52;;
35877;SDS011;21982;49.804;24.072;2023-11-19T01:16:57;21.83;;;12.52;;
35877;SDS011;21982;49.804;24.072;2023-11-19T01:19:22;26.50;;;12.25;;
35877;SDS011;21982;49.804;24.072;2023-11-19T01:21:49;23.90;;;12.25;;
35877;SDS011;21982;49.804;24.072;2023-11-19T01:24:18;21.13;;;10.45;;
35877;SDS011;21982;49.804;24.072;2023-11-19T01:26:44;20.55;;;10.27;;
35877;SDS011;21982;49.804;24.072;2023-11-19T01:29:15;21.35;;;10.88;;
35877;SDS011;21982;49.804;24.072;2023-11-19T01:31:45;22.20;;;9.85;;
35877;SDS011;21982;49.804;24.072;2023-11-19T01:34:16;24.23;;;12.38;;
35877;SDS011;21982;49.804;24.072;2023-11-19T01:36:41;23.20;;;11.25;;
35877;SDS011;21982;49.804;24.072;2023-11-19T01:39:06;27.30;;;12.38;;
35877;SDS011;21982;49.804;24.072;2023-11-19T01:41:35;23.90;;;10.60;;
35877;SDS011;21982;49.804;24.072;2023-11-19T01:44:01;19.27;;;10.48;;
35877;SDS011;21982;49.804;24.072;2023-11-19T01:46:27;19.98;;;10.13;;
35877;SDS011;21982;49.804;24.072;2023-11-19T01:48:53;18.50;;;9.82;;
35877;SDS011;21982;49.804;24.072;2023-11-19T01:51:19;19.75;;;9.50;;
35877;SDS011;21982;49.804;24.072;2023-11-19T01:53:51;16.50;;;9.93;;
35877;SDS011;21982;49.804;24.072;2023-11-19T01:56:17;17.70;;;9.25;;
35877;SDS011;21982;49.804;24.072;2023-11-19T01:58:43;21.75;;;11.18;;
35877;SDS011;21982;49.804;24.072;2023-11-19T02:01:10;20.77;;;10.38;;
35877;SDS011;21982;49.804;24.072;2023-11-19T02:03:37;21.27;;;12.07;;
35877;SDS011;21982;49.804;24.072;2023-11-19T02:06:03;18.42;;;9.95;;
35877;SDS011;21982;49.804;24.072;2023-11-19T02:08:29;19.42;;;9.65;;
35877;SDS011;21982;49.804;24.072;2023-11-19T02:10:55;17.95;;;8.30;;
35877;SDS011;21982;49.804;24.072;2023-11-19T02:13:25;23.63;;;9.52;;
35877;SDS011;21982;49.804;24.072;2023-11-19T02:15:51;20.75;;;8.95;;
35877;SDS011;21982;49.804;24.072;2023-11-19T02:18:24;20.13;;;9.82;;
35877;SDS011;21982;49.804;24.072;2023-11-19T02:20:53;20.67;;;10.20;;
35877;SDS011;21982;49.804;24.072;2023-11-19T02:23:22;21.73;;;11.25;;
35877;SDS011;21982;49.804;24.072;2023-11-19T02:28:51;21.05;;;11.20;;
35877;SDS011;21982;49.804;24.072;2023-11-19T02:31:17;19.40;;;9.82;;
35877;SDS011;21982;49.804;24.072;2023-11-19T02:33:44;20.48;;;11.38;;
35877;SDS011;21982;49.804;24.072;2023-11-19T02:36:09;17.20;;;8.40;;
35877;SDS011;21982;49.804;24.072;2023-11-19T02:38:35;18.33;;;9.65;;
35877;SDS011;21982;49.804;24.072;2023-11-19T02:41:04;24.10;;;10.80;;
35877;SDS011;21982;49.804;24.072;2023-11-19T02:43:34;23.85;;;10.50;;
35877;SDS011;21982;49.804;24.072;2023-11-19T02:46:03;23.30;;;11.90;;
35877;SDS011;21982;49.804;24.072;2023-11-19T02:48:32;25.50;;;13.23;;
35877;SDS011;21982;49.804;24.072;2023-11-19T02:51:01;24.38;;;12.00;;
35877;SDS011;21982;49.804;24.072;2023-11-19T02:53:28;20.67;;;10.95;;
35877;SDS011;21982;49.804;24.072;2023-11-19T02:55:56;24.80;;;12.45;;
35877;SDS011;21982;49.804;24.072;2023-11-19T02:58:36;22.52;;;11.80;;
35877;SDS011;21982;49.804;24.072;2023-11-19T03:01:02;24.05;;;12.20;;
35877;SDS011;21982;49.804;24.072;2023-11-19T03:03:37;23.52;;;11.50;;
35877;SDS011;21982;49.804;24.072;2023-11-19T03:06:05;21.05;;;10.02;;
35877;SDS011;21982;49.804;24.072;2023-11-19T03:08:31;20.23;;;10.60;;
35877;SDS011;21982;49.804;24.072;2023-11-19T03:10:57;21.48;;;11.07;;
35877;SDS011;21982;49.804;24.072;2023-11-19T03:13:24;24.80;;;11.63;;
35877;SDS011;21982;49.804;24.072;2023-11-19T03:15:49;23.58;;;11.13;;
35877;SDS011;21982;49.804;24.072;2023-11-19T03:18:15;19.77;;;11.88;;
35877;SDS011;21982;49.804;24.072;2023-11-19T03:20:40;24.85;;;11.25;;
35877;SDS011;21982;49.804;24.072;2023-11-19T03:23:05;68.65;;;14.88;;
35877;SDS011;21982;49.804;24.072;2023-11-19T03:25:31;67.07;;;14.10;;
35877;SDS011;21982;49.804;24.072;2023-11-19T03:28:01;23.90;;;10.77;;
35877;SDS011;21982;49.804;24.072;2023-11-19T03:30:27;22.85;;;9.43;;
35877;SDS011;21982;49.804;24.072;2023-11-19T03:32:53;19.70;;;9.30;;
35877;SDS011;21982;49.804;24.072;2023-11-19T03:35:19;26.40;;;12.15;;
35877;SDS011;21982;49.804;24.072;2023-11-19T03:37:45;41.22;;;10.60;;
35877;SDS011;21982;49.804;24.072;2023-11-19T03:40:11;31.10;;;12.40;;
35877;SDS011;21982;49.804;24.072;2023-11-19T03:42:37;28.17;;;10.40;;
35877;SDS011;21982;49.804;24.072;2023-11-19T03:45:04;20.80;;;9.60;;
35877;SDS011;21982;49.804;24.072;2023-11-19T03:47:37;34.63;;;10.20;;
35877;SDS011;21982;49.804;24.072;2023-11-19T03:50:02;17.38;;;8.57;;
35877;SDS011;21982;49.804;24.072;2023-11-19T03:52:28;24.23;;;8.43;;
35877;SDS011;21982;49.804;24.072;2023-11-19T03:54:54;20.02;;;8.73;;
35877;SDS011;21982;49.804;24.072;2023-11-19T03:57:20;17.67;;;7.75;;
35877;SDS011;21982;49.804;24.072;2023-11-19T03:59:46;17.35;;;8.40;;
35877;SDS011;21982;49.804;24.072;2023-11-19T04:02:11;15.38;;;7.70;;
35877;SDS011;21982;49.804;24.072;2023-11-19T04:04:37;21.35;;;8.48;;
35877;SDS011;21982;49.804;24.072;2023-11-19T04:07:03;16.35;;;8.20;;
35877;SDS011;21982;49.804;24.072;2023-11-19T04:09:29;17.88;;;8.13;;
35877;SDS011;21982;49.804;24.072;2023-11-19T04:11:55;14.73;;;7.10;;
35877;SDS011;21982;49.804;24.072;2023-11-19T04:14:25;17.50;;;8.27;;
35877;SDS011;21982;49.804;24.072;2023-11-19T04:16:51;18.80;;;7.85;;
35877;SDS011;21982;49.804;24.072;2023-11-19T04:19:16;18.88;;;8.88;;
35877;SDS011;21982;49.804;24.072;2023-11-19T04:21:42;15.18;;;7.35;;
35877;SDS011;21982;49.804;24.072;2023-11-19T04:24:08;17.30;;;8.82;;
35877;SDS011;21982;49.804;24.072;2023-11-19T04:26:39;17.55;;;8.45;;
35877;SDS011;21982;49.804;24.072;2023-11-19T04:29:07;17.77;;;8.02;;
35877;SDS011;21982;49.804;24.072;2023-11-19T04:31:34;16.38;;;8.00;;
35877;SDS011;21982;49.804;24.072;2023-11-19T04:33:59;16.73;;;8.35;;
35877;SDS011;21982;49.804;24.072;2023-11-19T04:36:25;20.05;;;9.27;;
35877;SDS011;21982;49.804;24.072;2023-11-19T04:38:51;15.05;;;7.40;;
35877;SDS011;21982;49.804;24.072;2023-11-19T04:41:16;18.20;;;8.38;;
35877;SDS011;21982;49.804;24.072;2023-11-19T04:43:41;18.13;;;7.72;;
35877;SDS011;21982;49.804;24.072;2023-11-19T04:46:07;18.50;;;8.25;;
35877;SDS011;21982;49.804;24.072;2023-11-19T04:48:34;19.92;;;8.07;;
35877;SDS011;21982;49.804;24.072;2023-11-19T04:51:00;19.70;;;8.45;;
35877;SDS011;21982;49.804;24.072;2023-11-19T04:53:25;19.67;;;9.43;;
35877;SDS011;21982;49.804;24.072;2023-11-19T04:55:51;35.25;;;11.50;;
35877;SDS011;21982;49.804;24.072;2023-11-19T04:58:16;24.23;;;9.63;;
35877;SDS011;21982;49.804;24.072;2023-11-19T05:00:41;29.00;;;10.02;;
35877;SDS011;21982;49.804;24.072;2023-11-19T05:03:07;34.20;;;10.70;;
35877;SDS011;21982;49.804;24.072;2023-11-19T05:05:33;22.92;;;10.73;;
35877;SDS011;21982;49.804;24.072;2023-11-19T05:07:58;23.23;;;8.68;;
35877;SDS011;21982;49.804;24.072;2023-11-19T05:10:24;18.42;;;7.45;;
35877;SDS011;21982;49.804;24.072;2023-11-19T05:12:49;15.65;;;7.32;;
35877;SDS011;21982;49.804;24.072;2023-11-19T05:15:16;19.65;;;9.45;;
35877;SDS011;21982;49.804;24.072;2023-11-19T05:17:42;18.77;;;9.38;;
35877;SDS011;21982;49.804;24.072;2023-11-19T05:20:07;15.75;;;7.90;;
35877;SDS011;21982;49.804;24.072;2023-11-19T05:22:39;13.75;;;6.07;;
35877;SDS011;21982;49.804;24.072;2023-11-19T05:25:05;15.68;;;7.43;;
35877;SDS011;21982;49.804;24.072;2023-11-19T05:27:35;11.85;;;6.18;;
35877;SDS011;21982;49.804;24.072;2023-11-19T05:30:02;15.73;;;6.03;;
35877;SDS011;21982;49.804;24.072;2023-11-19T05:32:28;16.00;;;6.45;;
35877;SDS011;21982;49.804;24.072;2023-11-19T05:34:54;16.52;;;7.15;;
35877;SDS011;21982;49.804;24.072;2023-11-19T05:37:19;19.05;;;8.02;;
35877;SDS011;21982;49.804;24.072;2023-11-19T05:39:45;13.95;;;7.32;;
35877;SDS011;21982;49.804;24.072;2023-11-19T05:42:10;16.17;;;7.85;;
35877;SDS011;21982;49.804;24.072;2023-11-19T05:44:36;11.88;;;6.90;;
35877;SDS011;21982;49.804;24.072;2023-11-19T05:47:02;18.25;;;7.63;;
35877;SDS011;21982;49.804;24.072;2023-11-19T05:49:29;17.75;;;8.15;;
35877;SDS011;21982;49.804;24.072;2023-11-19T05:51:54;15.45;;;6.80;;
35877;SDS011;21982;49.804;24.072;2023-11-19T05:54:21;13.00;;;6.25;;
35877;SDS011;21982;49.804;24.072;2023-11-19T05:56:49;20.50;;;9.13;;
35877;SDS011;21982;49.804;24.072;2023-11-19T05:59:15;14.55;;;7.20;;
35877;SDS011;21982;49.804;24.072;2023-11-19T06:01:43;17.92;;;6.93;;
35877;SDS011;21982;49.804;24.072;2023-11-19T06:04:09;13.43;;;6.25;;
35877;SDS011;21982;49.804;24.072;2023-11-19T06:06:35;16.70;;;6.53;;
35877;SDS011;21982;49.804;24.072;2023-11-19T06:09:01;15.38;;;6.72;;
35877;SDS011;21982;49.804;24.072;2023-11-19T06:11:28;14.18;;;6.85;;
35877;SDS011;21982;49.804;24.072;2023-11-19T06:13:53;15.60;;;7.25;;
35877;SDS011;21982;49.804;24.072;2023-11-19T06:16:22;14.27;;;6.85;;
35877;SDS011;21982;49.804;24.072;2023-11-19T06:18:52;13.95;;;6.38;;
35877;SDS011;21982;49.804;24.072;2023-11-19T06:21:21;11.93;;;5.38;;
35877;SDS011;21982;49.804;24.072;2023-11-19T06:23:46;14.50;;;6.10;;
35877;SDS011;21982;49.804;24.072;2023-11-19T06:26:12;14.40;;;6.95;;
35877;SDS011;21982;49.804;24.072;2023-11-19T06:28:39;18.45;;;7.45;;
35877;SDS011;21982;49.804;24.072;2023-11-19T06:31:07;15.38;;;6.57;;
35877;SDS011;21982;49.804;24.072;2023-11-19T06:33:32;20.80;;;7.47;;
35877;SDS011;21982;49.804;24.072;2023-11-19T06:36:01;15.63;;;7.22;;
35877;SDS011;21982;49.804;24.072;2023-11-19T06:38:27;14.15;;;7.40;;
35877;SDS011;21982;49.804;24.072;2023-11-19T06:40:53;17.52;;;8.52;;
35877;SDS011;21982;49.804;24.072;2023-11-19T06:43:18;16.65;;;7.60;;
35877;SDS011;21982;49.804;24.072;2023-11-19T06:45:44;13.50;;;7.65;;
35877;SDS011;21982;49.804;24.072;2023-11-19T06:48:09;18.42;;;8.23;;
35877;SDS011;21982;49.804;24.072;2023-11-19T06:50:35;14.60;;;7.13;;
35877;SDS011;21982;49.804;24.072;2023-11-19T06:53:00;15.65;;;7.57;;
35877;SDS011;21982;49.804;24.072;2023-11-19T06:55:26;17.35;;;8.25;;
35877;SDS011;21982;49.804;24.072;2023-11-19T06:57:52;17.08;;;7.65;;
35877;SDS011;21982;49.804;24.072;2023-11-19T07:00:19;16.33;;;7.57;;
35877;SDS011;21982;49.804;24.072;2023-11-19T07:02:45;15.38;;;7.70;;
35877;SDS011;21982;49.804;24.072;2023-11-19T07:05:10;13.02;;;7.03;;
35877;SDS011;21982;49.804;24.072;2023-11-19T07:07:38;18.58;;;8.73;;
35877;SDS011;21982;49.804;24.072;2023-11-19T07:10:05;17.33;;;9.18;;
35877;SDS011;21982;49.804;24.072;2023-11-19T07:12:33;19.23;;;7.80;;
35877;SDS011;21982;49.804;24.072;2023-11-19T07:15:00;14.65;;;7.80;;
35877;SDS011;21982;49.804;24.072;2023-11-19T07:17:27;16.80;;;7.68;;
35877;SDS011;21982;49.804;24.072;2023-11-19T07:19:52;14.05;;;7.80;;
35877;SDS011;21982;49.804;24.072;2023-11-19T07:22:18;15.07;;;7.63;;
35877;SDS011;21982;49.804;24.072;2023-11-19T07:24:44;16.75;;;8.05;;
35877;SDS011;21982;49.804;24.072;2023-11-19T07:27:10;16.08;;;8.48;;
35877;SDS011;21982;49.804;24.072;2023-11-19T07:29:35;15.45;;;8.15;;
35877;SDS011;21982;49.804;24.072;2023-11-19T07:32:01;15.45;;;7.32;;
35877;SDS011;21982;49.804;24.072;2023-11-19T07:34:30;19.00;;;8.55;;
35877;SDS011;21982;49.804;24.072;2023-11-19T07:36:55;17.05;;;8.63;;
35877;SDS011;21982;49.804;24.072;2023-11-19T07:39:24;12.57;;;6.97;;
35877;SDS011;21982;49.804;24.072;2023-11-19T07:41:50;15.75;;;8.20;;
35877;SDS011;21982;49.804;24.072;2023-11-19T07:44:16;19.45;;;8.35;;
35877;SDS011;21982;49.804;24.072;2023-11-19T07:46:42;17.05;;;8.68;;
35877;SDS011;21982;49.804;24.072;2023-11-19T07:49:07;19.10;;;8.80;;
35877;SDS011;21982;49.804;24.072;2023-11-19T07:51:38;14.23;;;7.60;;
35877;SDS011;21982;49.804;24.072;2023-11-19T07:54:07;14.07;;;6.85;;
35877;SDS011;21982;49.804;24.072;2023-11-19T07:56:33;17.95;;;8.55;;
35877;SDS011;21982;49.804;24.072;2023-11-19T07:59:04;16.40;;;9.00;;
35877;SDS011;21982;49.804;24.072;2023-11-19T08:01:30;17.00;;;7.97;;
35877;SDS011;21982;49.804;24.072;2023-11-19T08:03:58;17.00;;;9.50;;
35877;SDS011;21982;49.804;24.072;2023-11-19T08:06:24;15.70;;;7.95;;
35877;SDS011;21982;49.804;24.072;2023-11-19T08:08:52;16.50;;;8.70;;
35877;SDS011;21982;49.804;24.072;2023-11-19T08:11:18;16.67;;;8.10;;
35877;SDS011;21982;49.804;24.072;2023-11-19T08:13:45;17.33;;;9.65;;
35877;SDS011;21982;49.804;24.072;2023-11-19T08:16:10;16.15;;;8.10;;
35877;SDS011;21982;49.804;24.072;2023-11-19T08:18:36;16.80;;;9.52;;
35877;SDS011;21982;49.804;24.072;2023-11-19T08:21:02;17.85;;;8.98;;
35877;SDS011;21982;49.804;24.072;2023-11-19T08:23:29;16.15;;;8.45;;
35877;SDS011;21982;49.804;24.072;2023-11-19T08:25:55;17.80;;;8.43;;
35877;SDS011;21982;49.804;24.072;2023-11-19T08:28:20;16.30;;;8.45;;
35877;SDS011;21982;49.804;24.072;2023-11-19T08:30:46;15.00;;;7.63;;
35877;SDS011;21982;49.804;24.072;2023-11-19T08:33:11;14.98;;;7.70;;
35877;SDS011;21982;49.804;24.072;2023-11-19T08:35:37;16.33;;;9.30;;
35877;SDS011;21982;49.804;24.072;2023-11-19T08:38:02;18.20;;;9.63;;
35877;SDS011;21982;49.804;24.072;2023-11-19T08:40:28;21.48;;;11.02;;
35877;SDS011;21982;49.804;24.072;2023-11-19T08:42:56;18.40;;;10.18;;
35877;SDS011;21982;49.804;24.072;2023-11-19T08:45:22;17.00;;;8.68;;
35877;SDS011;21982;49.804;24.072;2023-11-19T08:47:49;18.05;;;9.38;;
35877;SDS011;21982;49.804;24.072;2023-11-19T08:50:14;19.70;;;10.13;;
35877;SDS011;21982;49.804;24.072;2023-11-19T08:52:40;17.75;;;9.02;;
35877;SDS011;21982;49.804;24.072;2023-11-19T08:55:05;18.20;;;8.50;;
35877;SDS011;21982;49.804;24.072;2023-11-19T08:57:31;14.95;;;8.48;;
35877;SDS011;21982;49.804;24.072;2023-11-19T08:59:58;15.38;;;7.35;;
35877;SDS011;21982;49.804;24.072;2023-11-19T09:02:23;16.73;;;9.30;;
35877;SDS011;21982;49.804;24.072;2023-11-19T09:04:50;15.43;;;7.72;;
35877;SDS011;21982;49.804;24.072;2023-11-19T09:07:15;16.05;;;8.27;;
35877;SDS011;21982;49.804;24.072;2023-11-19T09:09:41;16.52;;;7.22;;
35877;SDS011;21982;49.804;24.072;2023-11-19T09:12:06;16.23;;;7.55;;
35877;SDS011;21982;49.804;24.072;2023-11-19T09:14:32;17.63;;;9.65;;
35877;SDS011;21982;49.804;24.072;2023-11-19T09:16:59;16.75;;;8.68;;
35877;SDS011;21982;49.804;24.072;2023-11-19T09:19:25;19.23;;;8.70;;
35877;SDS011;21982;49.804;24.072;2023-11-19T09:21:54;16.17;;;8.63;;
35877;SDS011;21982;49.804;24.072;2023-11-19T09:24:19;15.70;;;9.18;;
35877;SDS011;21982;49.804;24.072;2023-11-19T09:26:44;17.17;;;9.07;;
35877;SDS011;21982;49.804;24.072;2023-11-19T09:29:10;14.50;;;7.53;;
35877;SDS011;21982;49.804;24.072;2023-11-19T09:31:37;16.65;;;9.63;;
35877;SDS011;21982;49.804;24.072;2023-11-19T09:34:03;17.88;;;7.88;;
35877;SDS011;21982;49.804;24.072;2023-11-19T09:36:29;15.77;;;8.35;;
35877;SDS011;21982;49.804;24.072;2023-11-19T09:38:54;16.30;;;8.35;;
35877;SDS011;21982;49.804;24.072;2023-11-19T09:41:19;17.55;;;8.27;;
35877;SDS011;21982;49.804;24.072;2023-11-19T09:43:45;21.27;;;10.38;;
35877;SDS011;21982;49.804;24.072;2023-11-19T09:46:12;21.17;;;9.18;;
35877;SDS011;21982;49.804;24.072;2023-11-19T09:48:40;15.57;;;7.43;;
35877;SDS011;21982;49.804;24.072;2023-11-19T09:51:09;18.50;;;8.02;;
35877;SDS011;21982;49.804;24.072;2023-11-19T09:53:36;15.40;;;8.40;;
35877;SDS011;21982;49.804;24.072;2023-11-19T09:56:03;19.85;;;11.15;;
35877;SDS011;21982;49.804;24.072;2023-11-19T09:58:33;18.20;;;8.80;;
35877;SDS011;21982;49.804;24.072;2023-11-19T10:00:59;19.25;;;9.10;;
35877;SDS011;21982;49.804;24.072;2023-11-19T10:03:34;17.15;;;9.18;;
35877;SDS011;21982;49.804;24.072;2023-11-19T10:06:03;13.70;;;7.53;;
35877;SDS011;21982;49.804;24.072;2023-11-19T10:08:33;16.30;;;7.15;;
35877;SDS011;21982;49.804;24.072;2023-11-19T10:10:59;15.60;;;7.07;;
35877;SDS011;21982;49.804;24.072;2023-11-19T10:13:27;18.45;;;9.23;;
35877;SDS011;21982;49.804;24.072;2023-11-19T10:15:54;19.85;;;8.35;;
35877;SDS011;21982;49.804;24.072;2023-11-19T10:18:24;26.80;;;10.55;;
35877;SDS011;21982;49.804;24.072;2023-11-19T10:20:51;20.35;;;11.77;;
35877;SDS011;21982;49.804;24.072;2023-11-19T10:23:17;18.83;;;9.77;;
35877;SDS011;21982;49.804;24.072;2023-11-19T10:25:42;18.85;;;9.18;;
35877;SDS011;21982;49.804;24.072;2023-11-19T10:28:19;15.60;;;7.20;;
35877;SDS011;21982;49.804;24.072;2023-11-19T10:33:27;14.15;;;8.20;;
35877;SDS011;21982;49.804;24.072;2023-11-19T10:36:21;17.17;;;7.97;;
35877;SDS011;21982;49.804;24.072;2023-11-19T10:38:53;14.77;;;7.50;;
35877;SDS011;21982;49.804;24.072;2023-11-19T10:41:27;15.20;;;8.15;;
35877;SDS011;21982;49.804;24.072;2023-11-19T10:43:56;14.55;;;8.77;;
35877;SDS011;21982;49.804;24.072;2023-11-19T10:46:21;16.50;;;8.38;;
35877;SDS011;21982;49.804;24.072;2023-11-19T10:48:48;17.52;;;7.88;;
35877;SDS011;21982;49.804;24.072;2023-11-19T10:51:14;17.17;;;8.75;;
35877;SDS011;21982;49.804;24.072;2023-11-19T10:53:46;17.45;;;7.70;;
35877;SDS011;21982;49.804;24.072;2023-11-19T10:56:14;17.85;;;8.98;;
35877;SDS011;21982;49.804;24.072;2023-11-19T10:58:53;12.73;;;5.47;;
35877;SDS011;21982;49.804;24.072;2023-11-19T11:01:33;12.27;;;6.43;;
35877;SDS011;21982;49.804;24.072;2023-11-19T11:04:05;14.23;;;6.47;;
35877;SDS011;21982;49.804;24.072;2023-11-19T11:06:38;11.68;;;6.15;;
35877;SDS011;21982;49.804;24.072;2023-11-19T11:09:05;14.13;;;8.13;;
35877;SDS011;21982;49.804;24.072;2023-11-19T11:11:36;13.27;;;6.95;;
35877;SDS011;21982;49.804;24.072;2023-11-19T11:14:03;16.30;;;8.60;;
35877;SDS011;21982;49.804;24.072;2023-11-19T11:16:30;14.77;;;8.32;;
35877;SDS011;21982;49.804;24.072;2023-11-19T11:18:57;13.65;;;6.72;;
35877;SDS011;21982;49.804;24.072;2023-11-19T11:21:24;15.30;;;6.63;;
35877;SDS011;21982;49.804;24.072;2023-11-19T11:29:30;15.75;;;7.63;;
35877;SDS011;21982;49.804;24.072;2023-11-19T11:37:47;17.27;;;9.20;;
35877;SDS011;21982;49.804;24.072;2023-11-19T11:40:18;17.90;;;8.70;;
35877;SDS011;21982;49.804;24.072;2023-11-19T11:42:43;17.98;;;9.02;;
35877;SDS011;21982;49.804;24.072;2023-11-19T11:45:10;15.90;;;9.27;;
35877;SDS011;21982;49.804;24.072;2023-11-19T11:50:10;19.00;;;9.90;;
35877;SDS011;21982;49.804;24.072;2023-11-19T11:55:24;24.73;;;10.88;;
35877;SDS011;21982;49.804;24.072;2023-11-19T11:57:56;25.55;;;11.45;;
35877;SDS011;21982;49.804;24.072;2023-11-19T12:00:31;19.45;;;10.60;;
35877;SDS011;21982;49.804;24.072;2023-11-19T12:03:01;17.83;;;8.75;;
35877;SDS011;21982;49.804;24.072;2023-11-19T12:05:29;18.33;;;9.77;;
35877;SDS011;21982;49.804;24.072;2023-11-19T12:08:03;17.05;;;8.35;;
35877;SDS011;21982;49.804;24.072;2023-11-19T12:10:31;17.45;;;8.52;;
35877;SDS011;21982;49.804;24.072;2023-11-19T12:13:02;17.23;;;8.10;;
35877;SDS011;21982;49.804;24.072;2023-11-19T12:15:32;16.70;;;9.57;;
35877;SDS011;21982;49.804;24.072;2023-11-19T12:17:57;19.73;;;10.10;;
35877;SDS011;21982;49.804;24.072;2023-11-19T12:20:24;21.48;;;10.80;;
35877;SDS011;21982;49.804;24.072;2023-11-19T12:22:56;20.35;;;10.05;;
35877;SDS011;21982;49.804;24.072;2023-11-19T12:25:25;20.33;;;10.73;;
35877;SDS011;21982;49.804;24.072;2023-11-19T12:34:06;23.95;;;10.40;;
35877;SDS011;21982;49.804;24.072;2023-11-19T12:36:36;16.15;;;8.20;;
35877;SDS011;21982;49.804;24.072;2023-11-19T12:39:02;17.13;;;8.98;;
35877;SDS011;21982;49.804;24.072;2023-11-19T12:41:29;20.52;;;9.25;;
35877;SDS011;21982;49.804;24.072;2023-11-19T12:44:10;18.33;;;8.57;;
35877;SDS011;21982;49.804;24.072;2023-11-19T12:46:36;20.65;;;9.65;;
35877;SDS011;21982;49.804;24.072;2023-11-19T12:49:02;17.08;;;9.77;;
35877;SDS011;21982;49.804;24.072;2023-11-19T12:51:30;18.05;;;9.18;;
35877;SDS011;21982;49.804;24.072;2023-11-19T12:53:57;20.60;;;8.95;;
35877;SDS011;21982;49.804;24.072;2023-11-19T12:56:25;20.95;;;11.57;;
35877;SDS011;21982;49.804;24.072;2023-11-19T12:58:51;19.33;;;10.77;;
35877;SDS011;21982;49.804;24.072;2023-11-19T13:01:17;20.73;;;9.30;;
35877;SDS011;21982;49.804;24.072;2023-11-19T13:03:44;22.77;;;9.45;;
35877;SDS011;21982;49.804;24.072;2023-11-19T13:06:10;19.30;;;10.15;;
35877;SDS011;21982;49.804;24.072;2023-11-19T13:08:46;18.48;;;8.80;;
35877;SDS011;21982;49.804;24.072;2023-11-19T13:11:31;18.92;;;10.32;;
35877;SDS011;21982;49.804;24.072;2023-11-19T13:13:58;18.30;;;9.38;;
35877;SDS011;21982;49.804;24.072;2023-11-19T13:16:29;21.45;;;10.15;;
35877;SDS011;21982;49.804;24.072;2023-11-19T13:18:55;18.10;;;9.68;;
35877;SDS011;21982;49.804;24.072;2023-11-19T13:21:22;18.90;;;10.02;;
35877;SDS011;21982;49.804;24.072;2023-11-19T13:23:48;21.95;;;10.18;;
35877;SDS011;21982;49.804;24.072;2023-11-19T13:26:13;18.52;;;9.68;;
35877;SDS011;21982;49.804;24.072;2023-11-19T13:28:39;17.73;;;8.50;;
35877;SDS011;21982;49.804;24.072;2023-11-19T13:31:04;19.77;;;9.57;;
35877;SDS011;21982;49.804;24.072;2023-11-19T13:33:30;17.20;;;8.80;;
35877;SDS011;21982;49.804;24.072;2023-11-19T13:41:06;16.70;;;9.15;;
35877;SDS011;21982;49.804;24.072;2023-11-19T13:43:34;16.95;;;8.43;;
35877;SDS011;21982;49.804;24.072;2023-11-19T13:45:59;14.55;;;7.93;;
35877;SDS011;21982;49.804;24.072;2023-11-19T13:48:24;19.85;;;8.75;;
35877;SDS011;21982;49.804;24.072;2023-11-19T13:50:51;22.48;;;8.60;;
35877;SDS011;21982;49.804;24.072;2023-11-19T13:53:17;20.38;;;9.82;;
35877;SDS011;21982;49.804;24.072;2023-11-19T13:55:42;19.38;;;9.95;;
35877;SDS011;21982;49.804;24.072;2023-11-19T13:58:08;21.65;;;10.82;;
35877;SDS011;21982;49.804;24.072;2023-11-19T14:00:37;21.27;;;9.25;;
35877;SDS011;21982;49.804;24.072;2023-11-19T14:03:03;20.17;;;10.88;;
35877;SDS011;21982;49.804;24.072;2023-11-19T14:05:29;19.98;;;9.57;;
35877;SDS011;21982;49.804;24.072;2023-11-19T14:08:18;19.90;;;9.02;;
35877;SDS011;21982;49.804;24.072;2023-11-19T14:10:44;18.58;;;10.10;;
35877;SDS011;21982;49.804;24.072;2023-11-19T14:13:09;20.63;;;9.95;;
35877;SDS011;21982;49.804;24.072;2023-11-19T14:15:36;16.75;;;10.35;;
35877;SDS011;21982;49.804;24.072;2023-11-19T14:18:05;17.05;;;9.00;;
35877;SDS011;21982;49.804;24.072;2023-11-19T14:20:30;18.00;;;9.98;;
35877;SDS011;21982;49.804;24.072;2023-11-19T14:22:56;20.02;;;10.52;;
35877;SDS011;21982;49.804;24.072;2023-11-19T14:25:25;20.55;;;10.63;;
35877;SDS011;21982;49.804;24.072;2023-11-19T14:27:50;20.25;;;10.93;;
35877;SDS011;21982;49.804;24.072;2023-11-19T14:32:56;22.48;;;12.10;;
35877;SDS011;21982;49.804;24.072;2023-11-19T14:35:22;18.98;;;10.50;;
35877;SDS011;21982;49.804;24.072;2023-11-19T14:37:49;18.77;;;10.23;;
35877;SDS011;21982;49.804;24.072;2023-11-19T14:40:14;23.92;;;12.45;;
35877;SDS011;21982;49.804;24.072;2023-11-19T14:42:40;19.90;;;12.20;;
35877;SDS011;21982;49.804;24.072;2023-11-19T14:45:06;26.50;;;12.90;;
35877;SDS011;21982;49.804;24.072;2023-11-19T14:47:32;23.63;;;12.68;;
35877;SDS011;21982;49.804;24.072;2023-11-19T14:49:57;24.65;;;13.18;;
35877;SDS011;21982;49.804;24.072;2023-11-19T14:52:23;26.95;;;14.18;;